Time;durP1;ratioP1;P1;durP2;ratioP2;P2;SDS_P1;SDS_P2;PMS_P1;PMS_P2;Temp;Humidity;BMP_temperature;BMP_pressure;BME280_temperature;BME280_humidity;BME280_pressure;Samples;Min_cycle;Max_cycle;Signal;HPM_P1;HPM_P2
2023/01/11 00:01:59;;;;;;;;;;;;;;;3.20;100.00;98321.97;5098371;28;19971;-74
2023/01/11 00:04:29;;;;;;;;;;;;;;;2.88;100.00;98312.25;5102299;28;19949;-74
2023/01/11 00:06:55;;;;;;;;;;;;;;;2.85;100.00;98310.00;5103179;28;19934;-74
2023/01/11 00:09:22;;;;;;;;;;;;;;;2.69;100.00;98313.88;5118309;28;19942;-74
2023/01/11 00:11:48;;;;;;;;;;;;;;;2.55;100.00;98314.06;5098734;28;19924;-74
2023/01/11 00:14:15;;;;;;;;;;;;;;;2.39;100.00;98309.19;5118277;28;19946;-74
2023/01/11 00:16:41;;;;;;;;;;;;;;;2.42;100.00;98309.59;5102025;28;19945;-73
2023/01/11 00:19:07;;;;;;;;;;;;;;;2.42;100.00;98301.69;5119427;28;20555;-74
2023/01/11 00:21:35;;;;;;;;;;;;;;;2.40;100.00;98309.00;5116804;28;19958;-74
2023/01/11 00:24:01;;;;;;;;;;;;;;;2.35;100.00;98313.25;5116462;28;19994;-74
2023/01/11 00:26:28;;;;;;;;;;;;;;;2.37;100.00;98316.50;5116748;28;19956;-74
2023/01/11 00:28:54;;;;;;;;;;;;;;;2.32;100.00;98311.03;5116655;28;19930;-74
2023/01/11 00:31:20;;;;;;;;;;;;;;;2.42;100.00;98306.97;5100823;28;19931;-73
2023/01/11 00:33:47;;;;;;;;;;;;;;;2.35;100.00;98293.00;5119990;28;19967;-74
2023/01/11 00:36:13;;;;;;;;;;;;;;;2.37;100.00;98295.41;5100372;28;19930;-75
2023/01/11 00:38:45;;;;;;;;;;;;;;;2.35;100.00;98294.81;5116621;28;19992;-74
2023/01/11 00:49:24;;;;;;;;;;;;;;;2.39;100.00;98281.00;5119046;28;19931;-74
2023/01/11 00:51:51;;;;;;;;;;;;;;;2.40;100.00;98287.09;5119630;28;19920;-74
2023/01/11 00:54:19;;;;;;;;;;;;;;;2.33;100.00;98278.38;5122985;27;20006;-73
2023/01/11 00:56:45;;;;;;;;;;;;;;;2.20;100.00;98288.91;5101274;28;19923;-74
2023/01/11 00:59:11;;;;;;;;;;;;;;;2.24;100.00;98284.84;5099990;28;19945;-74
2023/01/11 01:01:38;;;;;;;;;;;;;;;2.22;100.00;98281.63;5115763;28;19987;-74
2023/01/11 01:04:04;;;;;;;;;;;;;;;2.22;100.00;98287.69;5116186;28;19924;-74
2023/01/11 01:06:30;;;;;;;;;;;;;;;2.18;100.00;98282.00;5119596;28;19920;-74
2023/01/11 01:08:57;;;;;;;;;;;;;;;2.18;100.00;98281.19;5100739;28;19980;-74
2023/01/11 01:11:25;;;;;;;;;;;;;;;2.13;100.00;98273.91;5117706;28;19935;-74
2023/01/11 01:16:36;;;;;;;;;;;;;;;2.20;100.00;98278.38;5131857;27;20361;-74
2023/01/11 01:19:02;;;;;;;;;;;;;;;2.14;100.00;98286.06;5115573;28;19951;-74
2023/01/11 01:21:29;;;;;;;;;;;;;;;2.27;100.00;98280.00;5097274;28;19959;-75
2023/01/11 01:23:56;;;;;;;;;;;;;;;2.24;100.00;98269.84;5097107;28;20560;-75
2023/01/11 01:26:22;;;;;;;;;;;;;;;3.03;100.00;98272.47;5109535;28;19932;-74
2023/01/11 01:28:50;;;;;;;;;;;;;;;3.17;100.00;98269.59;5118742;28;19923;-74
2023/01/11 01:31:17;;;;;;;;;;;;;;;2.66;100.00;98263.41;5098916;28;19928;-74
2023/01/11 01:33:43;;;;;;;;;;;;;;;2.68;100.00;98266.63;5097387;28;20038;-74
2023/01/11 01:36:10;;;;;;;;;;;;;;;2.64;100.00;98249.59;5116510;28;19924;-75
2023/01/11 01:38:36;;;;;;;;;;;;;;;2.58;100.00;98248.56;5100520;28;19931;-75
2023/01/11 01:41:03;;;;;;;;;;;;;;;2.78;100.00;98247.75;5119252;28;19924;-75
2023/01/11 01:43:45;;;;;;;;;;;;;;;2.85;100.00;98253.84;5114100;28;19935;-75
2023/01/11 01:46:13;;;;;;;;;;;;;;;2.53;100.00;98243.13;5116510;28;19924;-75
2023/01/11 01:48:40;;;;;;;;;;;;;;;2.57;100.00;98246.13;5100688;28;20150;-75
2023/01/11 01:51:10;;;;;;;;;;;;;;;2.52;100.00;98245.94;5117740;28;20434;-75
2023/01/11 01:53:37;;;;;;;;;;;;;;;2.55;100.00;98240.25;5097347;28;19928;-75
2023/01/11 01:56:06;;;;;;;;;;;;;;;2.62;100.00;98241.06;5121978;28;19981;-75
2023/01/11 01:58:35;;;;;;;;;;;;;;;2.58;100.00;98239.84;5118728;28;19923;-74
2023/01/11 02:01:45;;;;;;;;;;;;;;;2.80;100.00;98240.44;5118720;28;19971;-75
2023/01/11 02:03:51;;;;;;;;;;;;;;;2.59;100.00;98236.22;5096863;28;19925;-74
2023/01/11 02:06:19;;;;;;;;;;;;;;;2.66;100.00;98244.94;5099176;28;19943;-75
2023/01/11 02:08:49;;;;;;;;;;;;;;;2.56;100.00;98239.25;5101147;28;19924;-75
2023/01/11 02:11:29;;;;;;;;;;;;;;;2.56;100.00;98231.34;5098934;28;19924;-75
2023/01/11 02:13:56;;;;;;;;;;;;;;;2.57;100.00;98238.22;5096847;28;19946;-75
2023/01/11 02:16:22;;;;;;;;;;;;;;;2.53;100.00;98234.41;5100002;28;19935;-74
2023/01/11 02:18:51;;;;;;;;;;;;;;;2.58;100.00;98237.22;5100832;28;19923;-74
2023/01/11 02:21:21;;;;;;;;;;;;;;;2.68;100.00;98234.97;5117094;28;19935;-74
2023/01/11 02:24:06;;;;;;;;;;;;;;;2.50;100.00;98238.25;5096989;28;19927;-74
2023/01/11 02:27:01;;;;;;;;;;;;;;;2.51;100.00;98233.75;5106239;28;19920;-74
2023/01/11 02:29:34;;;;;;;;;;;;;;;2.44;100.00;98227.72;5088541;28;19963;-74
2023/01/11 02:32:09;;;;;;;;;;;;;;;2.51;100.00;98228.50;5106429;28;19924;-74
2023/01/11 02:34:40;;;;;;;;;;;;;;;2.72;100.00;98221.16;5107436;28;19964;-74
2023/01/11 02:37:13;;;;;;;;;;;;;;;2.80;100.00;98219.34;5116591;28;20229;-74
2023/01/11 02:39:45;;;;;;;;;;;;;;;3.01;100.00;98214.63;5101840;28;19924;-74
2023/01/11 02:45:04;;;;;;;;;;;;;;;2.70;100.00;98219.75;5098211;28;19935;-74
2023/01/11 02:47:37;;;;;;;;;;;;;;;2.64;100.00;98213.47;5097986;28;19924;-74
2023/01/11 02:50:07;;;;;;;;;;;;;;;2.71;100.00;98213.47;5102872;28;19963;-74
2023/01/11 02:52:36;;;;;;;;;;;;;;;2.79;100.00;98202.69;5101758;28;19970;-74
2023/01/11 02:55:04;;;;;;;;;;;;;;;2.72;100.00;98204.56;5108184;28;19924;-74
2023/01/11 02:57:33;;;;;;;;;;;;;;;2.62;100.00;98204.97;5096824;28;19924;-74
2023/01/11 03:00:01;;;;;;;;;;;;;;;2.65;100.00;98204.56;5096435;28;20022;-74
2023/01/11 03:02:27;;;;;;;;;;;;;;;2.66;100.00;98200.13;5117668;28;19941;-74
2023/01/11 03:04:54;;;;;;;;;;;;;;;2.73;100.00;98195.63;5121847;28;20751;-75
2023/01/11 03:07:39;;;;;;;;;;;;;;;2.81;100.00;98203.31;5119354;28;19959;-74
2023/01/11 03:10:11;;;;;;;;;;;;;;;2.86;100.00;98202.69;5118655;28;19924;-74
2023/01/11 03:12:53;;;;;;;;;;;;;;;2.91;100.00;98202.91;5121776;28;19963;-75
2023/01/11 03:15:44;;;;;;;;;;;;;;;2.74;100.00;98207.78;5100833;28;19923;-75
2023/01/11 03:18:20;;;;;;;;;;;;;;;2.76;100.00;98203.13;5084199;28;20135;-74
2023/01/11 03:20:48;;;;;;;;;;;;;;;2.67;100.00;98199.06;5099529;28;20742;-74
2023/01/11 03:23:19;;;;;;;;;;;;;;;2.52;100.00;98206.41;5119809;28;19924;-74
2023/01/11 03:25:50;;;;;;;;;;;;;;;2.43;100.00;98205.00;5111445;28;20019;-75
2023/01/11 03:28:21;;;;;;;;;;;;;;;2.38;100.00;98207.44;5119695;28;19956;-75
2023/01/11 03:30:51;;;;;;;;;;;;;;;2.38;100.00;98202.16;5121453;28;19924;-75
2023/01/11 03:33:22;;;;;;;;;;;;;;;2.27;100.00;98200.13;5119349;28;19950;-74
2023/01/11 03:35:53;;;;;;;;;;;;;;;2.30;100.00;98205.81;5099438;28;19970;-75
2023/01/11 03:38:23;;;;;;;;;;;;;;;2.29;100.00;98206.03;5119891;28;19956;-74
2023/01/11 03:40:51;;;;;;;;;;;;;;;2.08;100.00;98185.94;5120883;28;19928;-75
2023/01/11 03:43:19;;;;;;;;;;;;;;;2.17;100.00;98185.53;5100781;28;19974;-74
2023/01/11 03:45:48;;;;;;;;;;;;;;;2.05;100.00;98176.63;5117074;28;19931;-74
2023/01/11 03:48:16;;;;;;;;;;;;;;;2.04;100.00;98176.84;5100297;28;19952;-73
2023/01/11 03:50:45;;;;;;;;;;;;;;;2.03;100.00;98168.13;5102383;28;20011;-73
2023/01/11 03:53:12;;;;;;;;;;;;;;;2.03;100.00;98168.13;5119454;28;19923;-73
2023/01/11 03:55:39;;;;;;;;;;;;;;;2.04;100.00;98158.41;5124851;27;19924;-73
2023/01/11 03:58:07;;;;;;;;;;;;;;;2.08;100.00;98147.22;5117349;28;19995;-73
2023/01/11 04:00:35;;;;;;;;;;;;;;;2.07;100.00;98153.50;5120568;28;19923;-73
2023/01/11 04:03:01;;;;;;;;;;;;;;;2.06;100.00;98153.72;5102279;28;19930;-73
2023/01/11 04:05:28;;;;;;;;;;;;;;;2.13;100.00;98147.44;5116857;28;19920;-73
2023/01/11 04:07:56;;;;;;;;;;;;;;;2.10;100.00;98147.81;5116998;28;19935;-73
2023/01/11 04:10:22;;;;;;;;;;;;;;;2.13;100.00;98144.00;5119263;28;19923;-73
2023/01/11 04:12:49;;;;;;;;;;;;;;;2.20;100.00;98149.28;5120089;28;19924;-73
2023/01/11 04:15:15;;;;;;;;;;;;;;;2.14;100.00;98153.50;5118141;28;19974;-73
2023/01/11 04:17:42;;;;;;;;;;;;;;;2.15;100.00;98171.75;5116397;28;19956;-73
2023/01/11 04:20:09;;;;;;;;;;;;;;;2.24;100.00;98159.19;5099043;28;19967;-74
2023/01/11 04:22:35;;;;;;;;;;;;;;;2.26;100.00;98165.06;5120496;28;20089;-73
2023/01/11 04:25:04;;;;;;;;;;;;;;;2.24;100.00;98161.81;5093532;28;19967;-73
2023/01/11 04:27:30;;;;;;;;;;;;;;;2.32;100.00;98163.44;5116532;28;19928;-74
2023/01/11 04:29:57;;;;;;;;;;;;;;;2.48;100.00;98158.53;5116236;28;20010;-73
2023/01/11 04:32:24;;;;;;;;;;;;;;;2.27;100.00;98153.50;5119163;28;19942;-73
2023/01/11 04:34:50;;;;;;;;;;;;;;;2.25;100.00;98138.91;5101555;28;19928;-73
2023/01/11 04:37:16;;;;;;;;;;;;;;;2.47;100.00;98149.03;5118141;28;19976;-73
2023/01/11 04:39:43;;;;;;;;;;;;;;;2.45;100.00;98144.97;5098346;28;20390;-74
2023/01/11 04:42:19;;;;;;;;;;;;;;;2.60;100.00;98148.19;5117536;28;19920;-73
2023/01/11 04:44:47;;;;;;;;;;;;;;;2.55;100.00;98140.09;5119650;28;19924;-73
2023/01/11 04:47:14;;;;;;;;;;;;;;;2.43;100.00;98139.91;5100266;28;19924;-73
2023/01/11 04:49:40;;;;;;;;;;;;;;;2.36;100.00;98140.91;5116173;28;19924;-73
2023/01/11 04:52:07;;;;;;;;;;;;;;;2.42;100.00;98140.91;5116487;28;20379;-73
2023/01/11 04:54:33;;;;;;;;;;;;;;;2.42;100.00;98145.38;5108755;28;20377;-74
2023/01/11 04:57:00;;;;;;;;;;;;;;;2.49;100.00;98141.72;5101184;28;19990;-73
2023/01/11 04:59:28;;;;;;;;;;;;;;;2.50;100.00;98148.63;5098377;28;19950;-73
2023/01/11 05:01:54;;;;;;;;;;;;;;;2.42;100.00;98140.09;5115980;28;19924;-74
2023/01/11 05:04:20;;;;;;;;;;;;;;;2.39;100.00;98141.31;5118900;28;20673;-73
2023/01/11 05:06:47;;;;;;;;;;;;;;;2.26;100.00;98135.28;5102960;28;19930;-73
2023/01/11 05:09:14;;;;;;;;;;;;;;;2.29;100.00;98126.97;5120167;28;19930;-73
2023/01/11 05:11:41;;;;;;;;;;;;;;;2.33;100.00;98120.25;5101497;28;19946;-73
2023/01/11 05:14:07;;;;;;;;;;;;;;;2.45;100.00;98134.41;5101618;28;19924;-73
2023/01/11 05:16:35;;;;;;;;;;;;;;;2.54;100.00;98128.72;5103624;28;19931;-73
2023/01/11 05:19:02;;;;;;;;;;;;;;;2.58;100.00;98129.94;5103237;28;20492;-73
2023/01/11 05:21:30;;;;;;;;;;;;;;;2.51;100.00;98117.78;5098517;28;19924;-73
2023/01/11 05:23:57;;;;;;;;;;;;;;;2.40;100.00;98121.06;5117173;28;19928;-74
2023/01/11 05:26:26;;;;;;;;;;;;;;;2.35;100.00;98116.41;5092572;28;19928;-74
2023/01/11 05:28:55;;;;;;;;;;;;;;;2.46;100.00;98128.13;5120632;28;19919;-73
2023/01/11 05:31:21;;;;;;;;;;;;;;;2.78;100.00;98124.63;5117293;28;19924;-74
2023/01/11 05:33:49;;;;;;;;;;;;;;;2.55;100.00;98129.53;5097863;28;19928;-73
2023/01/11 05:36:16;;;;;;;;;;;;;;;2.51;100.00;98126.50;5099970;28;19920;-73
2023/01/11 05:38:44;;;;;;;;;;;;;;;2.51;100.00;98118.59;5101185;28;19935;-74
2023/01/11 05:41:11;;;;;;;;;;;;;;;2.72;100.00;98128.09;5118274;28;19934;-74
2023/01/11 05:45:27;;;;;;;;;;;;;;;2.67;100.00;98123.44;5097415;28;19975;-74
2023/01/11 05:46:24;;;;;;;;;;;;;;;2.62;100.00;98114.53;5100143;28;19938;-74
2023/01/11 05:48:52;;;;;;;;;;;;;;;2.61;100.00;98111.06;5100710;28;19943;-73
2023/01/11 05:51:18;;;;;;;;;;;;;;;2.76;100.00;98120.53;5098352;28;19924;-74
2023/01/11 05:53:45;;;;;;;;;;;;;;;2.79;100.00;98120.94;5099626;27;19924;-75
2023/01/11 05:56:14;;;;;;;;;;;;;;;2.73;100.00;98133.13;5103014;28;19920;-75
2023/01/11 05:58:41;;;;;;;;;;;;;;;2.99;100.00;98111.16;5101131;28;19931;-75
2023/01/11 06:01:07;;;;;;;;;;;;;;;2.92;100.00;98128.81;5118744;28;19923;-75
2023/01/11 06:03:34;;;;;;;;;;;;;;;2.75;100.00;98125.03;5097287;28;19967;-74
2023/01/11 06:06:01;;;;;;;;;;;;;;;2.59;100.00;98125.47;5097351;28;19928;-74
2023/01/11 06:08:28;;;;;;;;;;;;;;;2.62;100.00;98125.88;5100258;28;19924;-74
2023/01/11 06:10:55;;;;;;;;;;;;;;;2.75;100.00;98124.22;5118816;28;19961;-74
2023/01/11 06:13:27;;;;;;;;;;;;;;;2.66;100.00;98121.00;5116408;28;19931;-75
2023/01/11 06:15:53;;;;;;;;;;;;;;;2.64;100.00;98108.03;5097202;28;19939;-74
2023/01/11 06:18:20;;;;;;;;;;;;;;;2.52;100.00;98109.69;5099510;28;19928;-75
2023/01/11 06:20:48;;;;;;;;;;;;;;;2.51;100.00;98107.22;5100758;28;19927;-75
2023/01/11 06:23:16;;;;;;;;;;;;;;;2.68;100.00;98105.78;5116708;28;19928;-75
2023/01/11 06:25:42;;;;;;;;;;;;;;;2.57;100.00;98096.66;5106383;28;19928;-74
2023/01/11 06:28:09;;;;;;;;;;;;;;;2.62;100.00;98109.25;5115274;28;19924;-74
2023/01/11 06:30:35;;;;;;;;;;;;;;;2.99;100.00;98089.22;5118441;28;19987;-75
2023/01/11 06:33:04;;;;;;;;;;;;;;;3.20;100.00;98102.91;5118239;28;19939;-75
2023/01/11 06:35:31;;;;;;;;;;;;;;;3.09;100.00;98094.88;5114805;28;20037;-74
2023/01/11 06:37:57;;;;;;;;;;;;;;;2.93;100.00;98090.88;5098471;28;19928;-74
2023/01/11 06:40:25;;;;;;;;;;;;;;;3.09;100.00;98092.22;5103171;28;19935;-74
2023/01/11 06:42:52;;;;;;;;;;;;;;;2.86;100.00;98079.53;5121569;28;19931;-74
2023/01/11 06:45:18;;;;;;;;;;;;;;;2.70;100.00;98069.47;5119827;28;20014;-75
2023/01/11 06:47:44;;;;;;;;;;;;;;;2.57;100.00;98082.69;5100648;28;19966;-75
2023/01/11 06:50:11;;;;;;;;;;;;;;;2.45;100.00;98081.69;5118989;28;19928;-76
2023/01/11 06:52:37;;;;;;;;;;;;;;;2.55;100.00;98087.34;5122209;28;19935;-75
2023/01/11 06:55:05;;;;;;;;;;;;;;;2.52;100.00;98074.59;5111603;28;19934;-75
2023/01/11 06:57:33;;;;;;;;;;;;;;;2.53;100.00;98089.41;5119188;28;19923;-75
2023/01/11 06:59:59;;;;;;;;;;;;;;;2.50;100.00;98081.91;5118210;28;20047;-75
2023/01/11 07:02:26;;;;;;;;;;;;;;;2.56;100.00;98081.06;5121291;28;20009;-75
2023/01/11 07:04:52;;;;;;;;;;;;;;;2.76;100.00;98079.16;5121895;28;19937;-75
2023/01/11 07:07:19;;;;;;;;;;;;;;;2.81;100.00;98092.56;5101562;28;19935;-75
2023/01/11 07:09:46;;;;;;;;;;;;;;;2.90;100.00;98091.28;5118177;28;19924;-75
2023/01/11 07:12:12;;;;;;;;;;;;;;;2.77;100.00;98088.72;5101156;28;19951;-75
2023/01/11 07:14:40;;;;;;;;;;;;;;;2.67;100.00;98090.97;5103263;28;19951;-74
2023/01/11 07:17:06;;;;;;;;;;;;;;;2.61;100.00;98091.81;5121093;28;19923;-75
2023/01/11 07:19:33;;;;;;;;;;;;;;;2.67;100.00;98086.50;5118263;28;20396;-76
2023/01/11 07:21:59;;;;;;;;;;;;;;;2.69;100.00;98088.94;5118807;28;20014;-74
2023/01/11 07:24:25;;;;;;;;;;;;;;;2.63;100.00;98092.41;5100811;28;19924;-74
2023/01/11 07:26:53;;;;;;;;;;;;;;;2.66;100.00;98086.72;5117317;28;19924;-75
2023/01/11 07:29:20;;;;;;;;;;;;;;;2.69;100.00;98089.75;5102387;28;19970;-75
2023/01/11 07:31:47;;;;;;;;;;;;;;;2.75;100.00;98096.03;5119146;28;19920;-75
2023/01/11 07:34:14;;;;;;;;;;;;;;;2.69;100.00;98104.78;5102522;28;20025;-76
2023/01/11 07:36:41;;;;;;;;;;;;;;;2.70;100.00;98082.63;5122405;28;19949;-75
2023/01/11 07:39:10;;;;;;;;;;;;;;;2.72;100.00;98073.50;5122040;28;19951;-74
2023/01/11 07:44:21;;;;;;;;;;;;;;;2.75;100.00;98069.66;5102507;28;19936;-74
2023/01/11 07:46:48;;;;;;;;;;;;;;;2.71;100.00;98071.09;5103568;28;19945;-74
2023/01/11 07:49:15;;;;;;;;;;;;;;;2.69;100.00;98073.13;5101302;28;19946;-75
2023/01/11 07:51:41;;;;;;;;;;;;;;;2.75;100.00;98069.66;5100332;28;19955;-75
2023/01/11 07:54:08;;;;;;;;;;;;;;;2.68;100.00;98067.03;5110216;27;19952;-75
2023/01/11 07:56:34;;;;;;;;;;;;;;;2.68;100.00;98088.13;5140131;27;19923;-75
2023/01/11 07:59:00;;;;;;;;;;;;;;;2.73;100.00;98082.22;5105073;28;19943;-75
2023/01/11 08:01:27;;;;;;;;;;;;;;;2.70;100.00;98086.09;5101147;28;19924;-74
2023/01/11 08:03:54;;;;;;;;;;;;;;;2.73;100.00;98069.03;5101587;28;19920;-74
2023/01/11 08:06:21;;;;;;;;;;;;;;;2.78;100.00;98084.25;5121588;28;19968;-75
2023/01/11 08:08:47;;;;;;;;;;;;;;;2.89;100.00;98080.94;5121477;28;19995;-74
2023/01/11 08:16:42;;;;;;;;;;;;;;;2.91;100.00;98084.19;5117547;28;19959;-74
2023/01/11 08:19:09;;;;;;;;;;;;;;;2.86;100.00;98073.44;5099420;28;19932;-73
2023/01/11 08:21:36;;;;;;;;;;;;;;;2.92;100.00;98073.41;5120758;28;19924;-74
2023/01/11 08:24:02;;;;;;;;;;;;;;;2.94;100.00;98076.66;5116722;28;19946;-75
2023/01/11 08:26:29;;;;;;;;;;;;;;;2.98;100.00;98069.94;5112256;28;20648;-76
2023/01/11 08:28:55;;;;;;;;;;;;;;;2.97;100.00;98081.50;5120337;28;19934;-75
2023/01/11 08:31:23;;;;;;;;;;;;;;;2.96;100.00;98074.63;5117141;28;19924;-75
2023/01/11 08:33:49;;;;;;;;;;;;;;;2.96;100.00;98069.34;5116311;28;19924;-75
2023/01/11 08:36:17;;;;;;;;;;;;;;;3.05;100.00;98073.38;5117769;28;19942;-74
2023/01/11 08:38:44;;;;;;;;;;;;;;;2.97;100.00;98070.94;5119507;28;19924;-75
2023/01/11 08:41:10;;;;;;;;;;;;;;;3.07;100.00;98066.03;5118998;28;19979;-74
2023/01/11 08:43:36;;;;;;;;;;;;;;;3.18;100.00;98062.75;5097738;28;19930;-74
2023/01/11 08:46:03;;;;;;;;;;;;;;;3.19;100.00;98069.63;5116227;28;19928;-74
2023/01/11 08:48:29;;;;;;;;;;;;;;;3.16;100.00;98061.31;5107331;28;19924;-74
2023/01/11 08:50:56;;;;;;;;;;;;;;;3.13;100.00;98064.38;5089633;28;19939;-74
2023/01/11 08:53:23;;;;;;;;;;;;;;;3.35;100.00;98063.03;5107692;28;19959;-74
2023/01/11 08:55:50;;;;;;;;;;;;;;;3.44;100.00;98055.66;5105730;28;19947;-74
2023/01/11 08:58:17;;;;;;;;;;;;;;;3.51;100.00;98061.72;5096002;28;19974;-74
2023/01/11 09:00:43;;;;;;;;;;;;;;;3.41;100.00;98074.56;5106888;28;19924;-74
2023/01/11 09:03:10;;;;;;;;;;;;;;;3.44;100.00;98066.22;5098031;28;19927;-74
2023/01/11 09:05:37;;;;;;;;;;;;;;;3.40;100.00;98060.56;5101207;28;19936;-74
2023/01/11 09:08:03;;;;;;;;;;;;;;;3.44;100.00;98063.56;5119535;28;19924;-74
2023/01/11 09:10:31;;;;;;;;;;;;;;;3.43;100.00;98048.78;5097874;28;19946;-75
2023/01/11 09:12:58;;;;;;;;;;;;;;;3.37;100.00;98044.34;5115792;28;19959;-74
2023/01/11 09:15:25;;;;;;;;;;;;;;;3.33;100.00;98041.31;5118201;28;19928;-74
2023/01/11 09:17:52;;;;;;;;;;;;;;;3.43;100.00;98040.84;5100437;28;19931;-74
2023/01/11 09:20:19;;;;;;;;;;;;;;;3.34;100.00;98047.41;5098976;28;19924;-74
2023/01/11 09:22:46;;;;;;;;;;;;;;;3.34;100.00;98040.31;5115314;28;19959;-75
2023/01/11 09:25:12;;;;;;;;;;;;;;;3.37;100.00;98045.16;5111869;28;19920;-74
2023/01/11 09:27:44;;;;;;;;;;;;;;;3.44;100.00;98051.19;5115525;28;20716;-75
2023/01/11 09:30:10;;;;;;;;;;;;;;;3.48;100.00;98041.00;5116226;28;20341;-74
2023/01/11 09:32:37;;;;;;;;;;;;;;;3.42;100.00;98050.59;5100940;28;19962;-76
2023/01/11 09:35:03;;;;;;;;;;;;;;;3.42;100.00;98050.59;5118832;28;19953;-74
2023/01/11 09:37:30;;;;;;;;;;;;;;;3.41;100.00;98056.09;5107041;28;19924;-74
2023/01/11 09:39:58;;;;;;;;;;;;;;;3.46;100.00;98056.28;5088695;28;19928;-75
2023/01/11 09:42:33;;;;;;;;;;;;;;;3.53;100.00;98054.41;5107060;28;19928;-74
2023/01/11 09:45:05;;;;;;;;;;;;;;;3.50;100.00;98055.59;5106838;28;19924;-75
2023/01/11 09:47:39;;;;;;;;;;;;;;;3.55;100.00;98058.44;5092612;28;19923;-75
2023/01/11 09:50:10;;;;;;;;;;;;;;;3.61;100.00;98051.47;5100259;28;19931;-74
2023/01/11 09:52:39;;;;;;;;;;;;;;;3.62;100.00;98053.91;5115394;28;19924;-75
2023/01/11 09:55:10;;;;;;;;;;;;;;;3.60;100.00;98052.50;5109092;28;19924;-74
2023/01/11 09:57:44;;;;;;;;;;;;;;;3.59;100.00;98049.03;5096749;28;19920;-75
2023/01/11 10:00:16;;;;;;;;;;;;;;;3.61;100.00;98041.72;5097895;28;19924;-74
2023/01/11 10:02:52;;;;;;;;;;;;;;;3.64;100.00;98040.50;5118532;28;19928;-74
2023/01/11 10:05:30;;;;;;;;;;;;;;;3.63;100.00;98023.84;5116514;28;19930;-74
2023/01/11 10:08:02;;;;;;;;;;;;;;;3.67;100.00;98025.03;5096898;28;19946;-75
2023/01/11 10:10:34;;;;;;;;;;;;;;;3.64;100.00;98033.38;5118332;28;20704;-75
2023/01/11 10:13:04;;;;;;;;;;;;;;;3.71;100.00;98028.03;5102776;28;19919;-75
2023/01/11 10:15:37;;;;;;;;;;;;;;;3.70;100.00;98024.59;5100617;28;19992;-74
2023/01/11 10:18:16;;;;;;;;;;;;;;;3.75;100.00;98016.00;5118785;28;19928;-75
2023/01/11 10:20:45;;;;;;;;;;;;;;;3.80;100.00;98014.34;5119112;28;19999;-74
2023/01/11 10:23:15;;;;;;;;;;;;;;;3.86;100.00;98014.50;5101752;28;19920;-74
2023/01/11 10:25:50;;;;;;;;;;;;;;;3.88;100.00;97996.59;5094915;28;20333;-74
2023/01/11 10:28:21;;;;;;;;;;;;;;;3.85;100.00;97997.84;5120409;28;20626;-74
2023/01/11 10:31:06;;;;;;;;;;;;;;;3.83;100.00;97996.44;5121856;28;19962;-75
2023/01/11 10:33:45;;;;;;;;;;;;;;;3.89;100.00;98000.84;5100321;28;19952;-74
2023/01/11 10:36:33;;;;;;;;;;;;;;;3.97;100.00;98009.28;5119820;28;19930;-74
2023/01/11 10:39:14;;;;;;;;;;;;;;;3.88;100.00;98010.59;5104386;28;19920;-74
2023/01/11 10:41:51;;;;;;;;;;;;;;;3.95;100.00;98000.78;5119027;28;19943;-74
2023/01/11 10:44:23;;;;;;;;;;;;;;;3.97;100.00;97990.81;5120302;28;19946;-74
2023/01/11 10:46:52;;;;;;;;;;;;;;;3.95;100.00;97981.50;5103447;28;19920;-73
2023/01/11 10:49:25;;;;;;;;;;;;;;;4.02;100.00;97984.88;5103401;28;19970;-73
2023/01/11 10:51:54;;;;;;;;;;;;;;;4.05;100.00;97979.16;5121017;28;19979;-75
2023/01/11 10:54:24;;;;;;;;;;;;;;;4.09;100.00;97975.84;5131300;27;19949;-75
2023/01/11 10:57:00;;;;;;;;;;;;;;;4.06;100.00;97976.28;5124227;28;19987;-75
2023/01/11 10:59:35;;;;;;;;;;;;;;;3.96;100.00;97960.13;5102874;28;19927;-75
2023/01/11 11:02:08;;;;;;;;;;;;;;;4.10;100.00;97956.31;5120186;28;19935;-75
2023/01/11 11:04:53;;;;;;;;;;;;;;;4.30;100.00;97961.38;5118539;28;19920;-75
2023/01/11 11:07:24;;;;;;;;;;;;;;;4.26;100.00;97961.03;5107896;28;19920;-75
2023/01/11 11:09:55;;;;;;;;;;;;;;;4.22;100.00;97954.53;5129878;28;19947;-75
2023/01/11 11:12:23;;;;;;;;;;;;;;;4.29;100.00;97942.06;5127398;28;20375;-75
2023/01/11 11:14:51;;;;;;;;;;;;;;;4.30;100.00;97941.03;5126499;28;19948;-76
2023/01/11 11:17:23;;;;;;;;;;;;;;;4.45;100.00;97947.78;5124225;28;19963;-75
2023/01/11 11:19:49;;;;;;;;;;;;;;;4.42;100.00;97945.56;5124657;28;19919;-75
2023/01/11 11:22:16;;;;;;;;;;;;;;;4.40;100.00;97943.16;5101472;28;20499;-75
2023/01/11 11:24:44;;;;;;;;;;;;;;;4.36;100.00;97932.19;5112646;28;19928;-74
2023/01/11 11:27:16;;;;;;;;;;;;;;;4.46;100.00;97941.44;5092224;28;19992;-74
2023/01/11 11:29:48;;;;;;;;;;;;;;;4.46;100.00;97928.22;5103201;28;19927;-74
2023/01/11 11:32:18;;;;;;;;;;;;;;;4.44;100.00;97919.72;5101114;28;19942;-74
2023/01/11 11:34:47;;;;;;;;;;;;;;;4.48;100.00;97915.59;5117619;28;19925;-74
2023/01/11 11:37:20;;;;;;;;;;;;;;;4.51;100.00;97923.09;5118100;28;20592;-75
2023/01/11 11:39:48;;;;;;;;;;;;;;;4.46;100.00;97922.94;5120379;28;19931;-75
2023/01/11 11:42:16;;;;;;;;;;;;;;;4.50;100.00;97908.25;5100608;28;19923;-74
2023/01/11 11:44:42;;;;;;;;;;;;;;;4.55;100.00;97921.63;5116578;28;19928;-75
2023/01/11 11:47:14;;;;;;;;;;;;;;;4.55;100.00;97905.75;5117121;28;19935;-74
2023/01/11 11:49:41;;;;;;;;;;;;;;;4.49;100.00;97904.00;5120297;28;19923;-74
2023/01/11 11:52:12;;;;;;;;;;;;;;;4.51;100.00;97886.88;5119889;28;19976;-74
2023/01/11 11:54:41;;;;;;;;;;;;;;;4.54;100.00;97889.06;5107316;28;19924;-74
2023/01/11 11:57:13;;;;;;;;;;;;;;;4.59;100.00;97877.81;5119698;28;20063;-74
2023/01/11 11:59:44;;;;;;;;;;;;;;;4.52;100.00;97885.03;5098251;28;19924;-74
2023/01/11 12:02:20;;;;;;;;;;;;;;;4.47;100.00;97883.06;5099302;28;19924;-75
2023/01/11 12:04:49;;;;;;;;;;;;;;;4.50;100.00;97868.56;5119633;27;20006;-74
2023/01/11 12:07:18;;;;;;;;;;;;;;;4.53;100.00;97868.94;5118236;28;19959;-75
2023/01/11 12:09:47;;;;;;;;;;;;;;;4.60;100.00;97867.00;5116440;28;19959;-75
2023/01/11 12:12:16;;;;;;;;;;;;;;;4.68;100.00;97868.50;5117380;28;19966;-75
2023/01/11 12:14:42;;;;;;;;;;;;;;;4.61;100.00;97865.19;5120054;28;19987;-75
2023/01/11 12:17:22;;;;;;;;;;;;;;;4.70;100.00;97861.19;5119214;28;19972;-75
2023/01/11 12:19:49;;;;;;;;;;;;;;;4.77;100.00;97860.03;5116510;28;19984;-75
2023/01/11 12:22:18;;;;;;;;;;;;;;;4.81;100.00;97857.72;5099619;28;20059;-75
2023/01/11 12:24:45;;;;;;;;;;;;;;;4.80;100.00;97862.22;5095923;28;19979;-75
2023/01/11 12:27:15;;;;;;;;;;;;;;;4.84;100.00;97852.00;5116316;28;19963;-75
2023/01/11 12:29:50;;;;;;;;;;;;;;;4.91;100.00;97852.69;5116565;28;20384;-75
2023/01/11 12:32:34;;;;;;;;;;;;;;;4.96;100.00;97855.44;5118118;28;19956;-75
2023/01/11 12:35:19;;;;;;;;;;;;;;;4.98;100.00;97857.88;5112084;28;19924;-76
2023/01/11 12:37:58;;;;;;;;;;;;;;;4.89;100.00;97852.91;5115685;28;19973;-75
2023/01/11 12:40:30;;;;;;;;;;;;;;;4.91;100.00;97842.13;5099631;28;19920;-75
2023/01/11 12:43:08;;;;;;;;;;;;;;;4.99;100.00;97851.53;5118284;28;21279;-75
2023/01/11 12:45:39;;;;;;;;;;;;;;;4.98;100.00;97857.88;5113743;28;19927;-75
2023/01/11 12:48:14;;;;;;;;;;;;;;;5.03;100.00;97860.66;5115275;28;19924;-75
2023/01/11 12:50:47;;;;;;;;;;;;;;;5.05;100.00;97854.09;5100313;28;19923;-76
2023/01/11 12:53:23;;;;;;;;;;;;;;;5.05;100.00;97853.28;5117745;28;19923;-75
2023/01/11 12:55:55;;;;;;;;;;;;;;;5.01;100.00;97850.31;5122985;27;19931;-75
2023/01/11 12:58:25;;;;;;;;;;;;;;;5.07;100.00;97843.28;5117375;28;19995;-75
2023/01/11 13:01:06;;;;;;;;;;;;;;;5.13;100.00;97843.16;5100276;28;19926;-75
2023/01/11 13:03:45;;;;;;;;;;;;;;;5.14;100.00;97843.97;5115048;28;19924;-75
2023/01/11 13:06:14;;;;;;;;;;;;;;;5.07;100.00;97840.63;5097731;28;20019;-75
2023/01/11 13:08:48;;;;;;;;;;;;;;;5.11;100.00;97839.13;5118233;28;19924;-75
2023/01/11 13:11:33;;;;;;;;;;;;;;;5.14;100.00;97838.66;5099243;28;19941;-76
2023/01/11 13:14:03;;;;;;;;;;;;;;;5.17;100.00;97836.38;5097269;28;20315;-76
2023/01/11 13:16:32;;;;;;;;;;;;;;;5.10;100.00;97833.03;5100136;28;19951;-75
2023/01/11 13:19:01;;;;;;;;;;;;;;;5.13;100.00;97837.88;5118075;28;20647;-74
2023/01/11 13:21:30;;;;;;;;;;;;;;;5.14;100.00;97836.81;5115182;28;19931;-74